Time;durP1;ratioP1;P1;durP2;ratioP2;P2;SDS_P1;SDS_P2;PMS_P1;PMS_P2;Temp;Humidity;BMP_temperature;BMP_pressure;BME280_temperature;BME280_humidity;BME280_pressure;Samples;Min_cycle;Max_cycle;Signal;HPM_P1;HPM_P2
2024/02/19 00:04:43;;;;;;;3.47;0.60;;;;;;;10.95;77.40;101102.47;10299584;28;20061;-62
2024/02/19 00:09:44;;;;;;;1.05;0.77;;;;;;;10.97;77.17;101103.16;10302979;28;20445;-60
2024/02/19 00:14:46;;;;;;;2.13;0.75;;;;;;;10.97;77.17;101103.16;10303875;28;20141;-60
2024/02/19 00:19:47;;;;;;;1.92;0.88;;;;;;;11.02;77.22;101098.13;10298873;28;20522;-61
2024/02/19 00:24:50;;;;;;;2.08;1.10;;;;;;;11.09;77.13;101096.50;10302242;28;20085;-61
2024/02/19 00:29:51;;;;;;;2.53;0.73;;;;;;;11.06;76.85;101092.28;10301953;28;20057;-61
2024/02/19 00:34:53;;;;;;;1.83;0.60;;;;;;;11.11;76.66;101099.88;10303504;28;20130;-60
2024/02/19 00:39:54;;;;;;;1.88;0.60;;;;;;;11.15;76.85;101095.00;10305162;28;20046;-60
2024/02/19 00:44:56;;;;;;;1.08;0.60;;;;;;;11.11;77.09;101097.16;10298070;28;20061;-61
2024/02/19 00:49:57;;;;;;;1.58;0.60;;;;;;;11.07;76.94;101102.03;10298615;28;20739;-60
2024/02/19 00:54:59;;;;;;;2.20;0.65;;;;;;;11.13;77.22;101088.94;10285373;28;20503;-60
2024/02/19 01:00:01;;;;;;;2.85;0.65;;;;;;;11.16;76.85;101088.59;10305261;28;20054;-61
2024/02/19 01:05:04;;;;;;;1.92;0.60;;;;;;;11.16;76.58;101085.91;10292671;28;20390;-61
2024/02/19 01:10:07;;;;;;;5.68;0.80;;;;;;;11.14;76.87;101083.41;10298543;28;20047;-61
2024/02/19 01:15:09;;;;;;;1.27;0.93;;;;;;;11.10;76.47;101082.88;10304130;28;20049;-60
2024/02/19 01:20:11;;;;;;;2.10;0.88;;;;;;;11.19;76.53;101090.97;10282618;28;20063;-60
2024/02/19 01:25:12;;;;;;;2.20;0.60;;;;;;;11.26;76.44;101098.25;10299971;28;20055;-60
2024/02/19 01:30:14;;;;;;;2.80;0.70;;;;;;;11.28;76.37;101098.09;10300612;28;20421;-60
2024/02/19 01:35:15;;;;;;;2.47;0.75;;;;;;;11.30;76.08;101094.22;10296792;28;20366;-61
2024/02/19 01:40:17;;;;;;;4.65;0.85;;;;;;;11.43;75.75;101092.91;10282318;28;20042;-61
2024/02/19 01:45:26;;;;;;;2.97;0.68;;;;;;;11.43;75.60;101095.63;10297434;28;20054;-60
2024/02/19 01:50:32;;;;;;;6.57;0.55;;;;;;;11.53;74.86;101109.78;10277453;28;20046;-61
2024/02/19 01:55:37;;;;;;;2.83;0.30;;;;;;;11.61;74.53;101107.13;10264388;28;20050;-61
2024/02/19 02:00:40;;;;;;;5.97;0.60;;;;;;;11.68;74.52;101102.75;10299678;28;20054;-62
2024/02/19 02:05:42;;;;;;;2.78;0.47;;;;;;;11.80;73.86;101105.16;10293970;28;20047;-61
2024/02/19 02:10:43;;;;;;;1.75;0.32;;;;;;;11.81;73.89;101096.03;10294184;28;20145;-62
2024/02/19 02:15:45;;;;;;;1.77;0.40;;;;;;;11.80;73.80;101088.97;10298158;28;20149;-62
2024/02/19 02:20:47;;;;;;;5.57;0.55;;;;;;;11.75;73.88;101110.19;10296045;28;20054;-59
2024/02/19 02:25:49;;;;;;;2.22;0.40;;;;;;;11.74;73.81;101108.50;10297060;28;20054;-59
2024/02/19 02:30:50;;;;;;;1.10;0.30;;;;;;;11.75;73.86;101108.34;10297075;28;20054;-59
2024/02/19 02:35:52;;;;;;;1.45;0.20;;;;;;;11.76;73.97;101099.25;10302737;28;20050;-60
2024/02/19 02:40:54;;;;;;;1.20;0.10;;;;;;;11.78;72.75;101126.84;10305915;28;20046;-59
2024/02/19 02:45:56;;;;;;;2.75;0.10;;;;;;;11.81;71.98;101134.63;10303653;28;20058;-61
2024/02/19 02:50:57;;;;;;;2.75;0.10;;;;;;;11.83;71.47;101140.69;10309245;28;20140;-60
2024/02/19 02:55:59;;;;;;;0.35;0.10;;;;;;;11.93;70.83;101137.00;10306176;28;20078;-60
2024/02/19 03:01:01;;;;;;;0.00;0.00;;;;;;;11.86;70.76;101159.19;10303432;28;20046;-60
2024/02/19 03:06:03;;;;;;;0.20;0.10;;;;;;;11.89;70.71;101153.53;10305050;28;20066;-60
2024/02/19 03:11:05;;;;;;;0.10;0.10;;;;;;;11.88;70.43;101154.47;10304873;28;20130;-61
2024/02/19 03:16:08;;;;;;;0.00;0.00;;;;;;;11.69;69.93;101150.25;10299267;28;20513;-60
2024/02/19 03:21:15;;;;;;;0.10;0.08;;;;;;;11.70;70.15;101145.69;10311573;28;20529;-60
2024/02/19 03:26:27;;;;;;;0.65;0.08;;;;;;;11.71;69.82;101145.53;10300819;28;20050;-59
2024/02/19 03:31:42;;;;;;;0.57;0.00;;;;;;;11.65;69.70;101148.03;10304493;28;20097;-60
2024/02/19 03:36:49;;;;;;;0.95;0.10;;;;;;;11.54;69.80;101157.25;10305028;28;20051;-58
2024/02/19 03:41:51;;;;;;;0.20;0.13;;;;;;;11.51;68.97;101176.41;10301270;28;20137;-58
2024/02/19 03:46:53;;;;;;;0.30;0.20;;;;;;;11.44;68.75;101178.06;10284734;28;20137;-58
2024/02/19 03:51:54;;;;;;;1.88;0.20;;;;;;;11.41;68.31;101173.00;10304491;28;20058;-57
2024/02/19 03:56:57;;;;;;;2.90;0.30;;;;;;;11.38;68.20;101198.41;10287011;28;20726;-58
2024/02/19 04:01:59;;;;;;;0.90;0.17;;;;;;;11.31;67.65;101189.28;10297252;28;20816;-59
2024/02/19 04:07:02;;;;;;;0.13;0.10;;;;;;;11.36;67.84;101191.50;10301305;28;20050;-59
2024/02/19 04:12:07;;;;;;;2.60;0.20;;;;;;;11.35;67.43;101206.78;10303886;28;20058;-59
2024/02/19 04:17:08;;;;;;;0.20;0.10;;;;;;;11.35;67.11;101208.66;10299803;28;20088;-59
2024/02/19 04:22:10;;;;;;;2.40;0.20;;;;;;;11.32;67.84;101223.28;10302596;28;20042;-58
2024/02/19 04:27:14;;;;;;;0.52;0.10;;;;;;;11.31;67.81;101226.97;10300410;28;20490;-59
2024/02/19 04:32:15;;;;;;;0.98;0.17;;;;;;;11.29;67.55;101229.84;10301505;28;20048;-59
2024/02/19 04:37:17;;;;;;;0.28;0.20;;;;;;;11.24;67.56;101240.22;10303822;28;20132;-58
2024/02/19 04:42:19;;;;;;;0.50;0.20;;;;;;;11.17;68.06;101247.22;10304197;28;20069;-60
2024/02/19 04:47:20;;;;;;;3.80;0.45;;;;;;;11.15;67.54;101256.47;10285797;28;20590;-60
2024/02/19 04:52:23;;;;;;;3.85;0.30;;;;;;;11.03;66.96;101274.72;10257014;28;20082;-60
2024/02/19 04:57:24;;;;;;;3.90;0.57;;;;;;;10.93;65.76;101268.56;10299816;28;20058;-60
2024/02/19 05:02:26;;;;;;;2.22;0.85;;;;;;;10.95;65.67;101275.47;10296651;28;20074;-60
2024/02/19 05:07:27;;;;;;;3.42;0.63;;;;;;;10.85;65.83;101283.63;10299756;28;20052;-60
2024/02/19 05:12:29;;;;;;;2.90;0.40;;;;;;;10.81;65.32;101279.56;10300519;28;20050;-61
2024/02/19 05:17:31;;;;;;;2.80;0.40;;;;;;;10.76;65.39;101273.78;10295307;28;20454;-61
2024/02/19 05:22:33;;;;;;;2.28;0.40;;;;;;;10.66;65.10;101275.72;10282867;28;20070;-59
2024/02/19 05:27:36;;;;;;;4.75;0.60;;;;;;;10.60;65.02;101284.41;10284216;28;20054;-59
2024/02/19 05:32:38;;;;;;;2.95;0.43;;;;;;;10.51;65.12;101272.75;10298478;28;20059;-59
2024/02/19 05:37:39;;;;;;;4.05;0.60;;;;;;;10.48;65.22;101283.78;10284714;28;20081;-59
2024/02/19 05:42:41;;;;;;;2.72;0.70;;;;;;;10.46;65.09;101285.78;10299531;28;20049;-59
2024/02/19 05:47:42;;;;;;;6.60;0.70;;;;;;;10.41;65.59;101290.78;10301939;28;20058;-59
2024/02/19 05:52:44;;;;;;;3.35;0.85;;;;;;;10.36;65.85;101299.28;10304711;28;20042;-59
2024/02/19 05:57:45;;;;;;;3.45;0.40;;;;;;;10.34;65.82;101295.91;10299974;28;20448;-60
2024/02/19 06:02:47;;;;;;;7.00;0.88;;;;;;;10.27;66.30;101308.22;10303310;28;20104;-59
2024/02/19 06:07:49;;;;;;;2.05;0.50;;;;;;;10.22;66.71;101305.13;10305868;28;20055;-59
2024/02/19 06:12:52;;;;;;;1.70;0.30;;;;;;;10.19;66.87;101321.53;10288819;28;20490;-59
2024/02/19 06:17:53;;;;;;;4.10;0.20;;;;;;;10.15;66.81;101317.47;10308678;28;20050;-59
2024/02/19 06:22:55;;;;;;;2.05;0.40;;;;;;;10.10;66.87;101328.66;10313355;28;20101;-60
2024/02/19 06:27:57;;;;;;;3.17;0.20;;;;;;;10.07;66.95;101342.38;10308660;28;20141;-68
2024/02/19 06:32:58;;;;;;;2.22;0.22;;;;;;;10.10;66.92;101342.94;10308960;28;20062;-66
2024/02/19 06:38:00;;;;;;;4.07;0.30;;;;;;;10.09;67.26;101351.16;10306479;28;20065;-65
2024/02/19 06:43:02;;;;;;;1.98;0.30;;;;;;;10.08;66.70;101361.06;10307389;28;20064;-64
2024/02/19 06:48:04;;;;;;;0.20;0.10;;;;;;;10.10;66.66;101374.34;10307904;28;20054;-65
2024/02/19 06:53:06;;;;;;;0.77;0.17;;;;;;;10.14;66.90;101386.50;10289716;28;20047;-63
2024/02/19 06:58:08;;;;;;;2.20;0.20;;;;;;;10.24;66.84;101391.81;10308792;28;20055;-65
2024/02/19 07:03:10;;;;;;;1.70;0.10;;;;;;;10.35;66.28;101404.25;10314850;28;20655;-62
2024/02/19 07:08:13;;;;;;;2.60;0.20;;;;;;;10.40;66.51;101404.66;10311863;28;20413;-61
2024/02/19 07:13:15;;;;;;;0.95;0.20;;;;;;;10.41;66.38;101415.25;10295134;28;20120;-64
2024/02/19 07:18:16;;;;;;;0.93;0.20;;;;;;;10.50;66.25;101430.50;10309679;28;20596;-64
2024/02/19 07:23:18;;;;;;;9.80;1.02;;;;;;;10.61;65.95;101423.22;10310730;28;20133;-64
2024/02/19 07:28:19;;;;;;;4.00;0.43;;;;;;;10.71;65.66;101424.03;10291530;28;20054;-64
2024/02/19 07:33:21;;;;;;;0.70;0.30;;;;;;;10.77;65.24;101436.88;10293856;28;20051;-63
2024/02/19 07:38:23;;;;;;;1.98;0.30;;;;;;;10.91;65.19;101439.03;10305550;28;20594;-62
2024/02/19 07:43:24;;;;;;;2.83;0.40;;;;;;;10.97;65.30;101451.03;10311610;28;20059;-63
2024/02/19 07:48:26;;;;;;;5.05;1.30;;;;;;;10.97;64.82;101452.88;10303226;28;20626;-64
2024/02/19 07:53:27;;;;;;;1.50;0.52;;;;;;;10.97;65.17;101461.81;10310152;28;20101;-62
2024/02/19 07:58:29;;;;;;;5.65;0.52;;;;;;;10.90;64.57;101463.41;10305087;28;20053;-63
2024/02/19 08:03:33;;;;;;;1.88;0.40;;;;;;;10.95;64.76;101462.97;10306902;28;20137;-62
2024/02/19 08:08:34;;;;;;;3.47;0.40;;;;;;;10.94;64.93;101472.88;10307566;28;20051;-63
2024/02/19 08:13:36;;;;;;;0.95;0.50;;;;;;;10.96;64.74;101476.25;10308468;28;20505;-68
2024/02/19 08:18:38;;;;;;;5.10;1.58;;;;;;;11.06;64.89;101489.66;10303371;28;20062;-69
2024/02/19 08:23:40;;;;;;;1.90;0.50;;;;;;;11.06;65.11;101485.13;10304021;28;20097;-68
2024/02/19 08:28:42;;;;;;;3.72;1.00;;;;;;;11.05;65.30;101487.94;10298602;28;20053;-67
2024/02/19 08:33:43;;;;;;;4.13;0.50;;;;;;;11.05;65.42;101498.72;10302646;28;20047;-67
2024/02/19 08:38:49;;;;;;;5.75;0.75;;;;;;;11.16;64.96;101506.59;10304047;28;20042;-68
2024/02/19 08:43:51;;;;;;;4.07;0.60;;;;;;;11.31;65.04;101513.16;10303735;28;20405;-68
2024/02/19 08:48:53;;;;;;;2.38;0.20;;;;;;;11.43;65.03;101515.59;10299318;28;20101;-67
2024/02/19 08:53:55;;;;;;;3.45;0.25;;;;;;;11.41;65.10;101517.59;10304732;28;20114;-68
2024/02/19 08:59:03;;;;;;;0.75;0.30;;;;;;;11.57;64.35;101503.44;10301904;28;20427;-66
2024/02/19 09:04:05;;;;;;;3.45;0.57;;;;;;;11.62;64.20;101515.47;10304689;28;20050;-69
2024/02/19 09:09:08;;;;;;;2.13;0.50;;;;;;;11.57;64.38;101516.91;10303449;28;20059;-69
2024/02/19 09:14:09;;;;;;;3.50;0.20;;;;;;;11.52;64.67;101523.59;10290251;28;20039;-69
2024/02/19 09:19:11;;;;;;;3.45;0.20;;;;;;;11.53;64.38;101519.06;10302253;28;20121;-68
2024/02/19 09:24:13;;;;;;;3.78;1.05;;;;;;;11.56;63.99;101513.38;10294675;28;20051;-68
2024/02/19 09:29:17;;;;;;;2.25;0.30;;;;;;;11.69;63.94;101519.25;10305568;28;20130;-69
2024/02/19 09:34:18;;;;;;;2.35;0.30;;;;;;;11.93;63.86;101509.72;10305735;28;20137;-70
2024/02/19 09:39:20;;;;;;;6.40;0.35;;;;;;;12.28;62.96;101510.63;10304297;28;20142;-69
2024/02/19 09:44:21;;;;;;;2.35;0.45;;;;;;;12.53;62.74;101508.09;10307182;28;20849;-66
2024/02/19 09:49:27;;;;;;;3.80;0.45;;;;;;;12.78;62.78;101509.91;10308603;28;20042;-65
2024/02/19 09:54:29;;;;;;;1.70;0.10;;;;;;;12.62;62.64;101515.22;10312036;28;20061;-68
2024/02/19 09:59:31;;;;;;;1.10;0.30;;;;;;;12.71;62.29;101525.03;10304159;28;20501;-68
2024/02/19 10:04:35;;;;;;;3.70;0.20;;;;;;;12.76;62.40;101516.47;10308948;28;20137;-70
2024/02/19 10:09:36;;;;;;;1.48;0.43;;;;;;;12.96;62.21;101508.97;10310296;28;20060;-66
2024/02/19 10:14:38;;;;;;;3.05;0.45;;;;;;;13.08;62.25;101502.25;10313289;28;20051;-68
2024/02/19 10:19:39;;;;;;;3.22;0.50;;;;;;;13.26;61.57;101494.84;10309768;28;20066;-67
2024/02/19 10:24:41;;;;;;;2.58;0.30;;;;;;;13.45;61.37;101490.22;10315927;28;20501;-68
2024/02/19 10:29:43;;;;;;;2.42;0.22;;;;;;;13.75;60.74;101491.41;10315072;28;20061;-69
2024/02/19 10:34:44;;;;;;;2.55;0.20;;;;;;;13.87;60.30;101481.09;10337403;28;20057;-65
2024/02/19 10:39:47;;;;;;;2.30;0.15;;;;;;;14.23;59.43;101470.75;10330684;28;20065;-65
2024/02/19 10:44:50;;;;;;;2.20;0.20;;;;;;;14.32;59.06;101465.34;10330016;28;20043;-64
2024/02/19 10:49:56;;;;;;;4.88;0.30;;;;;;;14.76;58.69;101457.56;10321845;28;20047;-64
2024/02/19 10:55:01;;;;;;;3.25;0.30;;;;;;;14.82;58.88;101458.75;10329597;28;20061;-64
2024/02/19 11:00:16;;;;;;;4.22;0.30;;;;;;;14.97;58.90;101446.16;10329312;28;20053;-65
2024/02/19 11:05:17;;;;;;;5.10;0.30;;;;;;;15.27;58.25;101433.59;10313636;28;20129;-66
2024/02/19 11:10:19;;;;;;;2.17;0.20;;;;;;;15.25;58.40;101438.34;10310741;28;20046;-66
2024/02/19 11:15:21;;;;;;;2.38;0.30;;;;;;;15.10;58.71;101440.13;10318880;28;20067;-66
2024/02/19 11:20:25;;;;;;;2.40;0.30;;;;;;;14.75;58.89;101439.66;10335000;28;20043;-66
2024/02/19 11:25:27;;;;;;;5.28;0.30;;;;;;;14.81;58.59;101422.72;10334905;28;20110;-65
2024/02/19 11:30:31;;;;;;;2.25;0.22;;;;;;;14.91;58.11;101419.78;10313732;28;20105;-67
2024/02/19 11:35:34;;;;;;;3.63;0.20;;;;;;;14.78;58.28;101416.81;10312830;28;20047;-66
2024/02/19 11:40:37;;;;;;;3.40;0.60;;;;;;;15.14;57.66;101411.66;10336085;28;20454;-65
2024/02/19 11:45:39;;;;;;;5.18;0.30;;;;;;;15.58;56.55;101408.28;10332809;28;20046;-66
2024/02/19 11:50:41;;;;;;;1.35;0.47;;;;;;;15.65;56.45;101406.50;10337224;28;20057;-67
2024/02/19 11:55:45;;;;;;;1.08;0.45;;;;;;;15.50;56.83;101399.38;10336336;28;20051;-66
2024/02/19 12:00:47;;;;;;;1.40;0.20;;;;;;;15.46;56.74;101396.19;10312953;28;20067;-65
2024/02/19 12:05:49;;;;;;;3.60;0.30;;;;;;;15.60;56.26;101384.56;10316540;28;20062;-64
2024/02/19 12:10:54;;;;;;;5.03;0.20;;;;;;;15.79;55.94;101369.66;10311827;28;20054;-62
2024/02/19 12:15:56;;;;;;;5.22;0.20;;;;;;;15.69;55.48;101374.47;10285500;28;20051;-61
2024/02/19 12:20:59;;;;;;;1.85;0.20;;;;;;;15.85;55.04;101374.31;10302791;28;20086;-62
2024/02/19 12:26:01;;;;;;;2.42;0.40;;;;;;;15.95;54.25;101363.22;10301438;28;20383;-61
2024/02/19 12:31:02;;;;;;;2.58;0.10;;;;;;;16.04;54.31;101363.97;10305249;28;20114;-61
2024/02/19 12:36:23;;;;;;;2.42;0.40;;;;;;;15.98;54.18;101362.84;10299697;28;20106;-61
2024/02/19 12:41:24;;;;;;;1.08;0.20;;;;;;;15.85;54.37;101360.75;10299648;28;20093;-63
2024/02/19 12:46:26;;;;;;;2.10;0.10;;;;;;;15.55;53.91;101364.44;10307349;28;20058;-62
2024/02/19 12:51:33;;;;;;;4.20;0.40;;;;;;;15.55;52.85;101350.91;10295013;28;20425;-61
2024/02/19 12:56:36;;;;;;;1.80;0.20;;;;;;;15.34;52.17;101354.28;10311462;28;20054;-60
2024/02/19 13:01:38;;;;;;;5.28;0.20;;;;;;;15.30;52.04;101342.97;10297047;28;20454;-61
2024/02/19 13:06:40;;;;;;;2.50;0.25;;;;;;;15.40;51.63;101327.34;10297191;28;20047;-62
2024/02/19 13:11:43;;;;;;;1.38;0.20;;;;;;;15.27;51.64;101327.94;10287746;28;20425;-61
2024/02/19 13:16:45;;;;;;;2.88;0.38;;;;;;;15.17;51.90;101321.94;10305206;28;20042;-60
2024/02/19 13:21:59;;;;;;;2.28;0.28;;;;;;;15.37;51.53;101329.56;10308391;28;20055;-61
2024/02/19 13:27:00;;;;;;;2.90;0.25;;;;;;;15.32;51.53;101326.53;10301302;28;20077;-59
2024/02/19 13:32:02;;;;;;;3.78;0.32;;;;;;;15.19;51.74;101322.59;10307432;28;20552;-61
2024/02/19 13:37:06;;;;;;;7.30;0.20;;;;;;;15.26;51.41;101317.28;10303713;28;20186;-60
2024/02/19 13:42:09;;;;;;;3.35;1.10;;;;;;;15.27;51.37;101308.16;10278953;28;20051;-61
2024/02/19 13:47:11;;;;;;;3.10;0.63;;;;;;;15.31;51.41;101322.16;10306093;28;20773;-63
2024/02/19 13:52:12;;;;;;;1.80;0.28;;;;;;;15.23;51.23;101315.78;10308881;28;20539;-60
2024/02/19 13:57:15;;;;;;;3.22;0.73;;;;;;;15.21;50.86;101308.88;10305218;28;20413;-60
2024/02/19 14:02:17;;;;;;;1.75;0.20;;;;;;;15.29;50.69;101311.50;10299761;28;20154;-61
2024/02/19 14:07:19;;;;;;;5.18;0.40;;;;;;;15.32;50.79;101300.28;10286243;28;20046;-61
2024/02/19 14:12:20;;;;;;;1.33;0.20;;;;;;;15.30;50.75;101305.06;10301336;28;20082;-62
2024/02/19 14:17:22;;;;;;;2.55;0.73;;;;;;;15.18;50.39;101299.22;10299885;28;20106;-61
2024/02/19 14:22:24;;;;;;;1.35;0.35;;;;;;;15.10;50.46;101293.06;10296341;28;20057;-61
2024/02/19 14:27:28;;;;;;;3.60;0.30;;;;;;;15.15;50.59;101294.19;10296462;28;20059;-62
2024/02/19 14:32:29;;;;;;;1.88;0.30;;;;;;;15.15;50.22;101291.50;10305856;28;20050;-61
2024/02/19 14:37:37;;;;;;;2.92;0.82;;;;;;;15.02;50.55;101289.38;10309757;28;20051;-61
2024/02/19 14:42:41;;;;;;;3.65;0.40;;;;;;;15.00;50.27;101280.59;10309502;28;20149;-61
2024/02/19 14:47:45;;;;;;;1.95;0.35;;;;;;;15.15;50.23;101269.00;10308348;28;20552;-62
2024/02/19 14:52:46;;;;;;;1.45;0.40;;;;;;;15.18;49.91;101264.03;10312827;28;20134;-62
2024/02/19 14:57:48;;;;;;;3.40;0.30;;;;;;;15.35;49.52;101269.31;10309162;28;20054;-61
2024/02/19 15:02:51;;;;;;;2.90;0.50;;;;;;;15.21;49.98;101263.66;10302674;28;20414;-60
2024/02/19 15:07:53;;;;;;;5.75;0.63;;;;;;;15.07;50.49;101267.19;10295567;28;20063;-61
2024/02/19 15:12:57;;;;;;;5.65;0.80;;;;;;;14.94;51.20;101266.97;10304919;28;20062;-64
2024/02/19 15:17:59;;;;;;;3.65;0.82;;;;;;;14.27;53.36;101280.06;10291407;28;20139;-65
2024/02/19 15:23:04;;;;;;;6.93;0.75;;;;;;;13.42;56.76;101280.69;10300455;28;20046;-63
2024/02/19 15:28:05;;;;;;;4.10;1.00;;;;;;;13.08;57.88;101268.22;10282047;28;20090;-64
2024/02/19 15:33:07;;;;;;;6.97;1.35;;;;;;;12.73;59.69;101291.00;10304050;28;20039;-65
2024/02/19 15:38:09;;;;;;;6.50;0.95;;;;;;;12.65;60.13;101282.88;10303553;28;20409;-67
2024/02/19 15:43:14;;;;;;;3.17;0.90;;;;;;;12.73;60.54;101271.25;10302898;28;20133;-64
2024/02/19 15:48:15;;;;;;;4.95;0.95;;;;;;;12.70;61.03;101267.06;10305619;28;20054;-66
2024/02/19 15:53:17;;;;;;;3.97;0.90;;;;;;;12.74;60.77;101265.72;10301914;28;20063;-66
2024/02/19 15:58:29;;;;;;;3.03;0.95;;;;;;;12.74;61.33;101254.91;10299341;28;20505;-67
2024/02/19 16:04:21;;;;;;;4.35;1.00;;;;;;;12.81;61.17;101245.13;10306594;28;20082;-63
2024/02/19 16:09:23;;;;;;;7.47;1.00;;;;;;;12.83;61.40;101248.50;10301132;28;20047;-67
2024/02/19 16:14:24;;;;;;;5.10;0.70;;;;;;;12.85;61.70;101249.16;10294915;28;20474;-66
2024/02/19 16:19:26;;;;;;;4.25;0.60;;;;;;;12.81;62.02;101247.81;10294195;28;20129;-65
2024/02/19 16:24:33;;;;;;;3.17;0.73;;;;;;;12.83;62.27;101234.16;10301582;28;20059;-66
2024/02/19 16:29:35;;;;;;;5.03;0.75;;;;;;;12.85;62.27;101237.53;10292795;28;20095;-65
2024/02/19 16:34:36;;;;;;;5.72;0.80;;;;;;;12.84;62.47;101236.69;10300943;28;20069;-65
2024/02/19 16:39:39;;;;;;;4.30;0.95;;;;;;;12.80;62.81;101245.31;10305636;28;20054;-60
2024/02/19 16:44:43;;;;;;;5.25;1.17;;;;;;;12.86;62.50;101237.38;10291109;28;20058;-60
2024/02/19 16:49:46;;;;;;;2.92;1.30;;;;;;;12.96;62.42;101231.81;10299302;28;20531;-62
2024/02/19 16:54:47;;;;;;;7.72;1.70;;;;;;;12.96;62.74;101231.81;10291977;28;20541;-62
2024/02/19 16:59:50;;;;;;;7.95;1.60;;;;;;;12.90;63.07;101236.03;10297977;28;20051;-61
2024/02/19 17:04:52;;;;;;;5.22;1.10;;;;;;;12.90;62.98;101238.72;10308464;28;20042;-60
2024/02/19 17:09:53;;;;;;;5.32;1.77;;;;;;;12.88;63.31;101235.34;10308962;28;20047;-63
2024/02/19 17:14:56;;;;;;;5.00;1.45;;;;;;;12.82;63.50;101237.91;10300583;28;20050;-57
2024/02/19 17:19:59;;;;;;;8.65;2.28;;;;;;;12.88;63.69;101234.50;10301639;28;20057;-57
2024/02/19 17:25:00;;;;;;;7.45;1.60;;;;;;;12.93;63.48;101236.69;10298189;28;20054;-57
2024/02/19 17:30:02;;;;;;;5.90;2.25;;;;;;;12.88;63.94;101232.66;10297813;28;20058;-57
2024/02/19 17:35:04;;;;;;;8.27;1.67;;;;;;;12.86;64.34;101231.97;10297471;28;20050;-58
2024/02/19 17:40:09;;;;;;;4.88;1.88;;;;;;;12.76;64.54;101225.91;10296092;28;20047;-58
2024/02/19 17:45:12;;;;;;;6.72;2.13;;;;;;;12.71;64.89;101228.25;10298335;28;20552;-57
2024/02/19 17:50:14;;;;;;;10.50;2.40;;;;;;;12.68;65.12;101225.91;10281159;28;20051;-58
2024/02/19 17:55:17;;;;;;;5.43;1.73;;;;;;;12.58;65.73;101217.13;10296172;28;20055;-56
2024/02/19 18:00:19;;;;;;;7.07;1.83;;;;;;;12.55;65.49;101217.47;10297789;28;20062;-57
2024/02/19 18:05:21;;;;;;;6.93;1.88;;;;;;;12.49;65.82;101214.44;10299080;28;20513;-58
2024/02/19 18:10:23;;;;;;;4.85;1.42;;;;;;;12.50;65.99;101212.59;10289898;28;20082;-57
2024/02/19 18:15:25;;;;;;;4.40;1.10;;;;;;;12.46;66.25;101206.69;10287688;28;20054;-57
2024/02/19 18:20:27;;;;;;;2.38;1.08;;;;;;;12.39;66.41;101208.34;10307728;28;20397;-58
2024/02/19 18:25:28;;;;;;;11.20;1.17;;;;;;;12.35;66.83;101228.56;10314355;28;20050;-63
2024/02/19 18:30:30;;;;;;;5.68;2.00;;;;;;;12.34;67.01;101228.72;10307211;28;20046;-61
2024/02/19 18:35:33;;;;;;;3.58;2.33;;;;;;;12.26;67.35;101219.63;10304135;28;20047;-63
2024/02/19 18:40:36;;;;;;;8.77;2.83;;;;;;;12.01;67.95;101220.59;10299800;28;20105;-60
2024/02/19 18:45:42;;;;;;;8.02;2.80;;;;;;;11.89;68.85;101220.03;10308655;28;20128;-59
2024/02/19 18:50:44;;;;;;;10.45;4.18;;;;;;;11.82;68.99;101224.34;10293552;28;20149;-60
2024/02/19 18:55:58;;;;;;;5.07;2.10;;;;;;;11.82;69.26;101213.56;10310809;28;20553;-60
2024/02/19 19:01:04;;;;;;;4.25;1.75;;;;;;;11.92;68.36;101213.47;10302878;28;20375;-62
2024/02/19 19:06:07;;;;;;;6.65;2.17;;;;;;;11.81;69.19;101211.88;10297301;28;20051;-62
2024/02/19 19:11:10;;;;;;;9.38;2.55;;;;;;;11.86;68.46;101209.53;10301954;28;20046;-60
2024/02/19 19:16:11;;;;;;;7.65;1.67;;;;;;;11.95;68.46;101203.22;10300300;28;20722;-60
2024/02/19 19:21:13;;;;;;;5.85;1.65;;;;;;;11.95;68.25;101205.03;10297822;28;20070;-61
2024/02/19 19:26:15;;;;;;;2.50;1.10;;;;;;;11.92;68.79;101198.16;10303796;28;20054;-61
2024/02/19 19:31:17;;;;;;;5.20;1.23;;;;;;;11.98;68.36;101194.78;10304981;28;20532;-60
2024/02/19 19:36:19;;;;;;;4.72;1.80;;;;;;;11.92;68.55;101189.22;10308831;28;20050;-60
2024/02/19 19:41:21;;;;;;;5.00;1.13;;;;;;;11.97;68.66;101190.44;10304388;28;20057;-60
2024/02/19 19:46:23;;;;;;;5.97;1.45;;;;;;;11.93;68.76;101207.06;10305914;28;20050;-63
2024/02/19 19:51:25;;;;;;;5.50;0.80;;;;;;;11.66;69.84;101223.28;10302738;28;20471;-67
2024/02/19 19:56:28;;;;;;;2.10;0.57;;;;;;;11.54;69.48;101221.88;10304069;28;20145;-66
2024/02/19 20:01:33;;;;;;;2.92;0.50;;;;;;;11.40;68.70;101217.94;10307767;28;20050;-59
2024/02/19 20:06:35;;;;;;;1.65;0.30;;;;;;;11.31;68.05;101225.13;10307368;28;20085;-59
2024/02/19 20:11:37;;;;;;;0.73;0.30;;;;;;;11.31;67.88;101232.34;10308454;28;20712;-59
2024/02/19 20:16:41;;;;;;;3.08;0.30;;;;;;;11.34;67.29;101225.81;10304499;28;20050;-58
2024/02/19 20:21:43;;;;;;;1.15;0.40;;;;;;;11.38;66.88;101230.72;10300186;28;20057;-59
2024/02/19 20:26:45;;;;;;;1.17;0.30;;;;;;;11.31;66.43;101235.03;10284077;28;20046;-59
2024/02/19 20:31:47;;;;;;;0.50;0.30;;;;;;;11.36;66.54;101224.63;10291932;28;20050;-59
2024/02/19 20:36:49;;;;;;;4.72;0.30;;;;;;;11.37;66.42;101225.47;10304550;28;20042;-60
2024/02/19 20:41:52;;;;;;;1.77;0.40;;;;;;;11.44;65.84;101234.63;10299874;28;20105;-59
2024/02/19 20:46:53;;;;;;;0.88;0.47;;;;;;;11.50;65.77;101256.34;10301717;28;20053;-57
2024/02/19 20:51:55;;;;;;;2.88;0.40;;;;;;;11.55;65.79;101242.41;10303007;28;20134;-59
2024/02/19 20:56:56;;;;;;;0.85;0.85;;;;;;;11.68;65.09;101253.56;10298538;28;20054;-58
2024/02/19 21:01:58;;;;;;;2.22;0.55;;;;;;;11.56;65.85;101260.25;10299856;28;20058;-58
2024/02/19 21:07:01;;;;;;;1.83;0.60;;;;;;;11.58;65.46;101254.72;10302499;28;20054;-58
2024/02/19 21:12:03;;;;;;;1.42;0.40;;;;;;;11.43;65.49;101254.44;10302999;28;20078;-58
2024/02/19 21:17:04;;;;;;;0.73;0.50;;;;;;;11.38;65.41;101254.94;10299907;28;20523;-58
2024/02/19 21:22:06;;;;;;;1.23;0.32;;;;;;;11.34;64.99;101255.44;10301866;28;20050;-58
2024/02/19 21:27:07;;;;;;;2.03;0.47;;;;;;;11.27;65.03;101253.34;10298546;28;20045;-59
2024/02/19 21:32:11;;;;;;;0.70;0.70;;;;;;;11.23;65.14;101253.81;10303854;28;20090;-58
2024/02/19 21:37:13;;;;;;;0.70;0.40;;;;;;;11.12;65.11;101268.41;10279790;28;20078;-58
2024/02/19 21:42:15;;;;;;;4.70;0.45;;;;;;;11.06;65.03;101266.34;10294760;28;20567;-58
2024/02/19 21:47:23;;;;;;;1.00;0.35;;;;;;;11.03;64.99;101269.31;10288702;28;20074;-59
2024/02/19 21:52:27;;;;;;;2.78;0.30;;;;;;;11.02;64.84;101279.25;10309544;28;20397;-58
2024/02/19 21:57:31;;;;;;;1.02;0.30;;;;;;;10.99;65.10;101260.72;10309350;28;20054;-60
2024/02/19 22:02:32;;;;;;;0.80;0.20;;;;;;;10.94;65.33;101265.75;10309965;28;20527;-60
2024/02/19 22:07:34;;;;;;;5.40;0.50;;;;;;;10.85;65.53;101258.59;10291014;28;20062;-60
2024/02/19 22:12:36;;;;;;;0.63;0.28;;;;;;;10.75;65.29;101266.75;10308944;28;20074;-60
2024/02/19 22:17:38;;;;;;;1.45;0.40;;;;;;;10.62;65.26;101255.53;10305390;28;20050;-60
2024/02/19 22:22:40;;;;;;;1.23;0.50;;;;;;;10.58;65.30;101251.44;10288363;28;20046;-60
2024/02/19 22:27:44;;;;;;;0.77;0.30;;;;;;;10.48;65.42;101256.91;10305404;28;20140;-60
2024/02/19 22:32:45;;;;;;;1.70;0.43;;;;;;;10.57;64.76;101253.31;10305141;28;20165;-60
2024/02/19 22:37:47;;;;;;;1.15;0.50;;;;;;;10.58;64.87;101249.59;10301750;28;20061;-60
2024/02/19 22:42:48;;;;;;;1.70;0.85;;;;;;;10.53;64.87;101254.63;10308346;28;20138;-59
2024/02/19 22:47:51;;;;;;;1.45;0.75;;;;;;;10.50;65.23;101263.84;10303791;28;20050;-59
2024/02/19 22:52:53;;;;;;;4.47;1.58;;;;;;;10.48;65.68;101252.38;10286907;28;20105;-60
2024/02/19 22:57:54;;;;;;;2.15;0.47;;;;;;;10.45;65.68;101266.13;10301486;28;20058;-59
2024/02/19 23:02:56;;;;;;;3.22;1.00;;;;;;;10.47;66.06;101268.66;10289830;28;20678;-63
2024/02/19 23:07:59;;;;;;;3.95;0.80;;;;;;;10.58;66.23;101260.34;10303579;28;20418;-63
2024/02/19 23:13:01;;;;;;;1.80;0.60;;;;;;;10.68;66.09;101266.53;10301768;28;20069;-61